sensor_id;sensor_type;location;lat;lon;timestamp;pressure;altitude;pressure_sealevel;temperature;humidity
11648;BME280;5880;52.342;9.662;2023-06-01T00:01:50;101604.44;;;19.23;40.34
11648;BME280;5880;52.342;9.662;2023-06-01T00:04:15;101607.75;;;19.20;40.48
11648;BME280;5880;52.342;9.662;2023-06-01T00:06:43;101603.28;;;19.19;40.55
11648;BME280;5880;52.342;9.662;2023-06-01T00:09:09;101594.38;;;19.12;40.59
11648;BME280;5880;52.342;9.662;2023-06-01T00:11:35;101599.91;;;19.12;40.49
11648;BME280;5880;52.342;9.662;2023-06-01T00:14:02;101600.75;;;19.12;40.52
11648;BME280;5880;52.342;9.662;2023-06-01T00:16:28;101608.47;;;19.10;40.65
11648;BME280;5880;52.342;9.662;2023-06-01T00:18:57;101601.25;;;19.04;40.52
11648;BME280;5880;52.342;9.662;2023-06-01T00:21:27;101588.75;;;18.96;40.78
11648;BME280;5880;52.342;9.662;2023-06-01T00:23:53;101588.44;;;18.98;40.55
11648;BME280;5880;52.342;9.662;2023-06-01T00:26:18;101585.66;;;18.93;40.79
11648;BME280;5880;52.342;9.662;2023-06-01T00:28:44;101583.66;;;18.88;40.63
11648;BME280;5880;52.342;9.662;2023-06-01T00:31:10;101592.31;;;18.92;40.63
11648;BME280;5880;52.342;9.662;2023-06-01T00:33:35;101593.63;;;18.89;40.87
11648;BME280;5880;52.342;9.662;2023-06-01T00:36:01;101589.47;;;18.87;40.82
11648;BME280;5880;52.342;9.662;2023-06-01T00:38:27;101582.81;;;18.83;40.82
11648;BME280;5880;52.342;9.662;2023-06-01T00:40:52;101592.78;;;18.84;40.96
11648;BME280;5880;52.342;9.662;2023-06-01T00:43:18;101582.53;;;18.84;41.00
11648;BME280;5880;52.342;9.662;2023-06-01T00:45:44;101585.00;;;18.81;40.90
11648;BME280;5880;52.342;9.662;2023-06-01T00:48:16;101581.91;;;18.77;41.01
11648;BME280;5880;52.342;9.662;2023-06-01T00:50:44;101577.72;;;18.74;40.92
11648;BME280;5880;52.342;9.662;2023-06-01T00:53:18;101584.69;;;18.77;40.93
11648;BME280;5880;52.342;9.662;2023-06-01T00:55:46;101585.72;;;18.71;41.04
11648;BME280;5880;52.342;9.662;2023-06-01T00:58:13;101579.03;;;18.67;41.10
11648;BME280;5880;52.342;9.662;2023-06-01T01:00:39;101572.06;;;18.59;41.19
11648;BME280;5880;52.342;9.662;2023-06-01T01:03:06;101575.66;;;18.60;41.29
11648;BME280;5880;52.342;9.662;2023-06-01T01:05:38;101589.75;;;18.58;41.31
11648;BME280;5880;52.342;9.662;2023-06-01T01:08:12;101581.16;;;18.54;41.38
11648;BME280;5880;52.342;9.662;2023-06-01T01:10:53;101578.31;;;18.49;41.42
11648;BME280;5880;52.342;9.662;2023-06-01T01:13:44;101577.47;;;18.49;41.35
11648;BME280;5880;52.342;9.662;2023-06-01T01:16:28;101570.78;;;18.45;41.41
11648;BME280;5880;52.342;9.662;2023-06-01T01:22:38;101582.66;;;18.40;41.46
11648;BME280;5880;52.342;9.662;2023-06-01T01:28:40;101578.47;;;18.38;41.50
11648;BME280;5880;52.342;9.662;2023-06-01T01:31:12;101587.88;;;18.37;41.45
11648;BME280;5880;52.342;9.662;2023-06-01T01:33:41;101583.19;;;18.37;41.74
11648;BME280;5880;52.342;9.662;2023-06-01T01:36:08;101581.25;;;18.38;41.85
11648;BME280;5880;52.342;9.662;2023-06-01T01:38:36;101578.19;;;18.34;41.85
11648;BME280;5880;52.342;9.662;2023-06-01T01:41:02;101566.56;;;18.37;41.86
11648;BME280;5880;52.342;9.662;2023-06-01T01:43:30;101566.84;;;18.35;41.84
11648;BME280;5880;52.342;9.662;2023-06-01T01:46:22;101574.63;;;18.39;41.92
11648;BME280;5880;52.342;9.662;2023-06-01T01:49:26;101580.41;;;18.37;41.81
11648;BME280;5880;52.342;9.662;2023-06-01T01:52:12;101569.34;;;18.37;41.96
11648;BME280;5880;52.342;9.662;2023-06-01T01:54:45;101556.03;;;18.34;41.99
11648;BME280;5880;52.342;9.662;2023-06-01T01:57:13;101558.22;;;18.32;42.09
11648;BME280;5880;52.342;9.662;2023-06-01T01:59:42;101566.56;;;18.37;42.10
11648;BME280;5880;52.342;9.662;2023-06-01T02:02:07;101560.22;;;18.37;42.13
11648;BME280;5880;52.342;9.662;2023-06-01T02:04:41;101556.34;;;18.38;42.15
11648;BME280;5880;52.342;9.662;2023-06-01T02:07:08;101552.75;;;18.37;42.11
11648;BME280;5880;52.342;9.662;2023-06-01T02:09:35;101549.09;;;18.31;42.26
11648;BME280;5880;52.342;9.662;2023-06-01T02:12:00;101554.69;;;18.37;42.34
11648;BME280;5880;52.342;9.662;2023-06-01T02:14:28;101558.28;;;18.37;42.50
11648;BME280;5880;52.342;9.662;2023-06-01T02:16:54;101554.34;;;18.33;42.28
11648;BME280;5880;52.342;9.662;2023-06-01T02:19:20;101557.41;;;18.31;42.36
11648;BME280;5880;52.342;9.662;2023-06-01T02:21:45;101547.69;;;18.29;42.41
11648;BME280;5880;52.342;9.662;2023-06-01T02:24:11;101551.53;;;18.28;42.42
11648;BME280;5880;52.342;9.662;2023-06-01T02:26:38;101552.13;;;18.30;42.29
11648;BME280;5880;52.342;9.662;2023-06-01T02:29:04;101554.06;;;18.29;42.62
11648;BME280;5880;52.342;9.662;2023-06-01T02:31:34;101558.19;;;18.27;42.46
11648;BME280;5880;52.342;9.662;2023-06-01T02:34:00;101562.88;;;18.26;42.47
11648;BME280;5880;52.342;9.662;2023-06-01T02:36:27;101554.84;;;18.25;42.61
11648;BME280;5880;52.342;9.662;2023-06-01T02:38:55;101554.59;;;18.26;42.48
11648;BME280;5880;52.342;9.662;2023-06-01T02:41:21;101554.00;;;18.24;42.69
11648;BME280;5880;52.342;9.662;2023-06-01T02:43:48;101545.41;;;18.26;42.55
11648;BME280;5880;52.342;9.662;2023-06-01T02:46:16;101551.81;;;18.26;42.62
11648;BME280;5880;52.342;9.662;2023-06-01T02:48:43;101552.91;;;18.25;42.53
11648;BME280;5880;52.342;9.662;2023-06-01T02:51:09;101552.66;;;18.27;42.50
11648;BME280;5880;52.342;9.662;2023-06-01T02:53:34;101551.50;;;18.23;42.71
11648;BME280;5880;52.342;9.662;2023-06-01T02:56:00;101545.66;;;18.19;42.69
11648;BME280;5880;52.342;9.662;2023-06-01T02:58:26;101541.53;;;18.22;42.79
11648;BME280;5880;52.342;9.662;2023-06-01T03:00:57;101549.84;;;18.22;42.76
11648;BME280;5880;52.342;9.662;2023-06-01T03:03:27;101551.75;;;18.21;42.86
11648;BME280;5880;52.342;9.662;2023-06-01T03:05:53;101546.75;;;18.18;42.91
11648;BME280;5880;52.342;9.662;2023-06-01T03:08:20;101542.91;;;18.19;42.86
11648;BME280;5880;52.342;9.662;2023-06-01T03:10:46;101548.72;;;18.23;42.76
11648;BME280;5880;52.342;9.662;2023-06-01T03:13:12;101539.59;;;18.22;42.83
11648;BME280;5880;52.342;9.662;2023-06-01T03:15:38;101540.97;;;18.20;42.95
11648;BME280;5880;52.342;9.662;2023-06-01T03:18:05;101542.09;;;18.24;43.05
11648;BME280;5880;52.342;9.662;2023-06-01T03:20:34;101547.63;;;18.24;42.97
11648;BME280;5880;52.342;9.662;2023-06-01T03:23:00;101530.47;;;18.22;43.09
11648;BME280;5880;52.342;9.662;2023-06-01T03:25:26;101534.31;;;18.21;42.92
11648;BME280;5880;52.342;9.662;2023-06-01T03:27:52;101524.34;;;18.20;42.84
11648;BME280;5880;52.342;9.662;2023-06-01T03:30:18;101528.19;;;18.19;42.86
11648;BME280;5880;52.342;9.662;2023-06-01T03:32:44;101523.78;;;18.18;43.05
11648;BME280;5880;52.342;9.662;2023-06-01T03:35:13;101529.06;;;18.19;43.08
11648;BME280;5880;52.342;9.662;2023-06-01T03:37:44;101527.94;;;18.20;43.22
11648;BME280;5880;52.342;9.662;2023-06-01T03:40:11;101526.53;;;18.18;43.14
11648;BME280;5880;52.342;9.662;2023-06-01T03:42:55;101531.53;;;18.21;43.18
11648;BME280;5880;52.342;9.662;2023-06-01T03:45:20;101531.53;;;18.21;43.23
11648;BME280;5880;52.342;9.662;2023-06-01T03:47:46;101530.19;;;18.23;43.27
11648;BME280;5880;52.342;9.662;2023-06-01T03:50:12;101531.88;;;18.24;43.41
11648;BME280;5880;52.342;9.662;2023-06-01T03:52:38;101522.16;;;18.22;43.29
11648;BME280;5880;52.342;9.662;2023-06-01T03:55:06;101537.69;;;18.28;43.45
11648;BME280;5880;52.342;9.662;2023-06-01T03:57:35;101531.34;;;18.27;43.41
11648;BME280;5880;52.342;9.662;2023-06-01T04:00:05;101526.63;;;18.28;43.38
11648;BME280;5880;52.342;9.662;2023-06-01T04:02:49;101522.47;;;18.25;43.38
11648;BME280;5880;52.342;9.662;2023-06-01T04:05:15;101528.00;;;18.25;43.37
11648;BME280;5880;52.342;9.662;2023-06-01T04:07:50;101524.16;;;18.26;43.46
11648;BME280;5880;52.342;9.662;2023-06-01T04:10:17;101520.22;;;18.22;43.47
11648;BME280;5880;52.342;9.662;2023-06-01T04:12:44;101526.59;;;18.23;43.45
11648;BME280;5880;52.342;9.662;2023-06-01T04:15:12;101527.13;;;18.20;43.49
11648;BME280;5880;52.342;9.662;2023-06-01T04:17:40;101523.25;;;18.21;43.48
11648;BME280;5880;52.342;9.662;2023-06-01T04:20:13;101522.16;;;18.22;43.43
11648;BME280;5880;52.342;9.662;2023-06-01T04:22:40;101521.00;;;18.18;43.47
11648;BME280;5880;52.342;9.662;2023-06-01T04:25:09;101522.66;;;18.19;43.54
11648;BME280;5880;52.342;9.662;2023-06-01T04:27:37;101531.81;;;18.19;43.58
11648;BME280;5880;52.342;9.662;2023-06-01T04:30:14;101530.97;;;18.19;43.50
11648;BME280;5880;52.342;9.662;2023-06-01T04:32:41;101534.00;;;18.17;43.64
11648;BME280;5880;52.342;9.662;2023-06-01T04:35:10;101529.56;;;18.16;43.70
11648;BME280;5880;52.342;9.662;2023-06-01T04:37:37;101527.63;;;18.17;43.72
11648;BME280;5880;52.342;9.662;2023-06-01T04:40:06;101533.13;;;18.11;43.60
11648;BME280;5880;52.342;9.662;2023-06-01T04:42:34;101526.16;;;18.09;43.66
11648;BME280;5880;52.342;9.662;2023-06-01T04:45:01;101544.19;;;18.11;43.80
11648;BME280;5880;52.342;9.662;2023-06-01T04:47:32;101544.47;;;18.10;43.90
11648;BME280;5880;52.342;9.662;2023-06-01T04:49:58;101540.00;;;18.09;43.86
11648;BME280;5880;52.342;9.662;2023-06-01T04:52:24;101523.09;;;18.05;43.77
11648;BME280;5880;52.342;9.662;2023-06-01T04:54:50;101524.50;;;18.08;44.02
11648;BME280;5880;52.342;9.662;2023-06-01T04:57:16;101520.88;;;18.07;44.04
11648;BME280;5880;52.342;9.662;2023-06-01T04:59:42;101522.00;;;18.06;44.23
11648;BME280;5880;52.342;9.662;2023-06-01T05:02:07;101511.75;;;18.07;44.29
11648;BME280;5880;52.342;9.662;2023-06-01T05:04:33;101506.22;;;18.07;44.26
11648;BME280;5880;52.342;9.662;2023-06-01T05:06:59;101520.09;;;18.12;44.05
11648;BME280;5880;52.342;9.662;2023-06-01T05:09:25;101513.44;;;18.08;44.30
11648;BME280;5880;52.342;9.662;2023-06-01T05:11:51;101510.72;;;18.13;44.43
11648;BME280;5880;52.342;9.662;2023-06-01T05:14:17;101514.56;;;18.12;44.52
11648;BME280;5880;52.342;9.662;2023-06-01T05:16:43;101512.13;;;18.16;44.53
11648;BME280;5880;52.342;9.662;2023-06-01T05:19:08;101509.63;;;18.14;44.58
11648;BME280;5880;52.342;9.662;2023-06-01T05:21:34;101512.38;;;18.14;44.63
11648;BME280;5880;52.342;9.662;2023-06-01T05:23:59;101509.38;;;18.16;44.63
11648;BME280;5880;52.342;9.662;2023-06-01T05:26:25;101511.59;;;18.19;44.78
11648;BME280;5880;52.342;9.662;2023-06-01T05:28:52;101520.47;;;18.21;44.69
11648;BME280;5880;52.342;9.662;2023-06-01T05:31:18;101511.94;;;18.22;44.77
11648;BME280;5880;52.342;9.662;2023-06-01T05:33:44;101517.19;;;18.24;44.82
11648;BME280;5880;52.342;9.662;2023-06-01T05:36:10;101516.94;;;18.25;44.81
11648;BME280;5880;52.342;9.662;2023-06-01T05:38:36;101513.91;;;18.27;44.88
11648;BME280;5880;52.342;9.662;2023-06-01T05:41:02;101508.03;;;18.23;44.96
11648;BME280;5880;52.342;9.662;2023-06-01T05:43:28;101506.19;;;18.29;44.89
11648;BME280;5880;52.342;9.662;2023-06-01T05:45:53;101505.91;;;18.30;44.92
11648;BME280;5880;52.342;9.662;2023-06-01T05:48:19;101507.31;;;18.33;45.07
11648;BME280;5880;52.342;9.662;2023-06-01T05:50:45;101503.19;;;18.35;45.14
11648;BME280;5880;52.342;9.662;2023-06-01T05:53:10;101506.81;;;18.36;45.08
11648;BME280;5880;52.342;9.662;2023-06-01T05:55:36;101512.91;;;18.38;44.98
11648;BME280;5880;52.342;9.662;2023-06-01T05:58:02;101503.19;;;18.35;45.06
11648;BME280;5880;52.342;9.662;2023-06-01T06:00:27;101515.94;;;18.37;44.99
11648;BME280;5880;52.342;9.662;2023-06-01T06:02:53;101511.75;;;18.34;45.01
11648;BME280;5880;52.342;9.662;2023-06-01T06:05:18;101512.63;;;18.40;44.77
11648;BME280;5880;52.342;9.662;2023-06-01T06:07:44;101512.34;;;18.36;45.12
11648;BME280;5880;52.342;9.662;2023-06-01T06:10:11;101512.38;;;18.41;45.21
11648;BME280;5880;52.342;9.662;2023-06-01T06:12:37;101515.13;;;18.41;45.18
11648;BME280;5880;52.342;9.662;2023-06-01T06:15:04;101503.75;;;18.38;45.12
11648;BME280;5880;52.342;9.662;2023-06-01T06:17:29;101506.25;;;18.39;45.17
11648;BME280;5880;52.342;9.662;2023-06-01T06:19:55;101494.94;;;18.41;45.23
11648;BME280;5880;52.342;9.662;2023-06-01T06:22:21;101496.63;;;18.47;45.32
11648;BME280;5880;52.342;9.662;2023-06-01T06:24:46;101503.28;;;18.46;45.39
11648;BME280;5880;52.342;9.662;2023-06-01T06:27:12;101511.03;;;18.49;45.61
11648;BME280;5880;52.342;9.662;2023-06-01T06:29:38;101500.50;;;18.46;45.40
11648;BME280;5880;52.342;9.662;2023-06-01T06:32:04;101499.97;;;18.49;45.29
11648;BME280;5880;52.342;9.662;2023-06-01T06:34:30;101513.56;;;18.50;45.40
11648;BME280;5880;52.342;9.662;2023-06-01T06:37:04;101512.72;;;18.50;45.28
11648;BME280;5880;52.342;9.662;2023-06-01T06:39:30;101503.31;;;18.51;45.51
11648;BME280;5880;52.342;9.662;2023-06-01T06:41:55;101502.16;;;18.47;45.40
11648;BME280;5880;52.342;9.662;2023-06-01T06:44:21;101503.03;;;18.47;45.36
11648;BME280;5880;52.342;9.662;2023-06-01T06:46:47;101516.06;;;18.52;45.38
11648;BME280;5880;52.342;9.662;2023-06-01T06:49:12;101516.06;;;18.52;45.36
11648;BME280;5880;52.342;9.662;2023-06-01T06:51:38;101524.38;;;18.52;45.39
11648;BME280;5880;52.342;9.662;2023-06-01T06:54:04;101521.88;;;18.50;45.50
11648;BME280;5880;52.342;9.662;2023-06-01T06:56:31;101522.69;;;18.51;45.56
11648;BME280;5880;52.342;9.662;2023-06-01T06:58:56;101521.28;;;18.48;45.44
11648;BME280;5880;52.342;9.662;2023-06-01T07:01:22;101519.94;;;18.51;45.59
11648;BME280;5880;52.342;9.662;2023-06-01T07:03:51;101513.00;;;18.48;45.61
11648;BME280;5880;52.342;9.662;2023-06-01T07:06:17;101523.00;;;18.54;45.82
11648;BME280;5880;52.342;9.662;2023-06-01T07:08:43;101512.47;;;18.56;45.75
11648;BME280;5880;52.342;9.662;2023-06-01T07:11:10;101507.22;;;18.55;45.77
11648;BME280;5880;52.342;9.662;2023-06-01T07:13:35;101514.16;;;18.58;45.74
11648;BME280;5880;52.342;9.662;2023-06-01T07:16:02;101504.75;;;18.59;45.71
11648;BME280;5880;52.342;9.662;2023-06-01T07:18:28;101509.22;;;18.60;45.62
11648;BME280;5880;52.342;9.662;2023-06-01T07:20:54;101513.63;;;18.61;45.72
11648;BME280;5880;52.342;9.662;2023-06-01T07:23:20;101515.03;;;18.63;45.80
11648;BME280;5880;52.342;9.662;2023-06-01T07:25:46;101522.53;;;18.68;45.76
11648;BME280;5880;52.342;9.662;2023-06-01T07:28:11;101517.28;;;18.66;45.69
11648;BME280;5880;52.342;9.662;2023-06-01T07:30:38;101517.56;;;18.65;45.74
11648;BME280;5880;52.342;9.662;2023-06-01T07:33:04;101529.78;;;18.69;45.63
11648;BME280;5880;52.342;9.662;2023-06-01T07:35:30;101517.59;;;18.70;45.72
11648;BME280;5880;52.342;9.662;2023-06-01T07:37:55;101520.94;;;18.72;45.71
11648;BME280;5880;52.342;9.662;2023-06-01T07:40:21;101522.03;;;18.71;45.75
11648;BME280;5880;52.342;9.662;2023-06-01T07:42:47;101523.44;;;18.73;45.70
11648;BME280;5880;52.342;9.662;2023-06-01T07:45:13;101524.00;;;18.75;45.55
11648;BME280;5880;52.342;9.662;2023-06-01T07:47:39;101520.16;;;18.76;45.69
11648;BME280;5880;52.342;9.662;2023-06-01T07:50:05;101527.66;;;18.81;45.88
11648;BME280;5880;52.342;9.662;2023-06-01T07:52:32;101516.03;;;18.79;45.92
11648;BME280;5880;52.342;9.662;2023-06-01T07:54:57;101526.63;;;18.87;45.70
11648;BME280;5880;52.342;9.662;2023-06-01T07:57:23;101528.84;;;18.90;45.77
11648;BME280;5880;52.342;9.662;2023-06-01T07:59:49;101524.72;;;18.93;45.95
11648;BME280;5880;52.342;9.662;2023-06-01T08:02:15;101527.78;;;18.96;45.80
11648;BME280;5880;52.342;9.662;2023-06-01T08:04:40;101521.13;;;18.97;45.79
11648;BME280;5880;52.342;9.662;2023-06-01T08:07:06;101521.72;;;19.00;45.94
11648;BME280;5880;52.342;9.662;2023-06-01T08:09:33;101522.28;;;19.02;45.72
11648;BME280;5880;52.342;9.662;2023-06-01T08:11:58;101521.72;;;19.00;45.88
11648;BME280;5880;52.342;9.662;2023-06-01T08:14:24;101518.97;;;19.05;45.82
11648;BME280;5880;52.342;9.662;2023-06-01T08:16:50;101515.63;;;19.03;45.79
11648;BME280;5880;52.342;9.662;2023-06-01T08:19:19;101525.91;;;19.07;45.91
11648;BME280;5880;52.342;9.662;2023-06-01T08:21:44;101514.25;;;19.05;45.99
11648;BME280;5880;52.342;9.662;2023-06-01T08:24:11;101517.91;;;19.11;45.94
11648;BME280;5880;52.342;9.662;2023-06-01T08:26:38;101516.22;;;19.10;45.75
11648;BME280;5880;52.342;9.662;2023-06-01T08:29:05;101512.31;;;19.06;45.90
11648;BME280;5880;52.342;9.662;2023-06-01T08:31:30;101522.59;;;19.10;46.12
11648;BME280;5880;52.342;9.662;2023-06-01T08:33:56;101518.16;;;19.09;45.90
11648;BME280;5880;52.342;9.662;2023-06-01T08:36:22;101514.81;;;19.07;45.91
11648;BME280;5880;52.342;9.662;2023-06-01T08:38:49;101520.13;;;19.14;45.93
11648;BME280;5880;52.342;9.662;2023-06-01T08:41:56;101516.53;;;19.13;46.04
11648;BME280;5880;52.342;9.662;2023-06-01T08:44:27;101512.38;;;19.16;46.25
11648;BME280;5880;52.342;9.662;2023-06-01T08:46:54;101504.91;;;19.16;46.09
11648;BME280;5880;52.342;9.662;2023-06-01T08:49:21;101496.91;;;19.20;46.28
11648;BME280;5880;52.342;9.662;2023-06-01T08:51:53;101520.50;;;19.28;46.03
11648;BME280;5880;52.342;9.662;2023-06-01T08:54:20;101501.06;;;19.23;46.14
11648;BME280;5880;52.342;9.662;2023-06-01T08:56:47;101508.28;;;19.29;46.13
11648;BME280;5880;52.342;9.662;2023-06-01T08:59:12;101509.69;;;19.31;46.12
11648;BME280;5880;52.342;9.662;2023-06-01T09:01:39;101518.31;;;19.35;45.98
11648;BME280;5880;52.342;9.662;2023-06-01T09:04:05;101518.03;;;19.36;46.23
11648;BME280;5880;52.342;9.662;2023-06-01T09:06:31;101507.78;;;19.32;46.14
11648;BME280;5880;52.342;9.662;2023-06-01T09:08:56;101519.13;;;19.35;46.02
11648;BME280;5880;52.342;9.662;2023-06-01T09:11:25;101521.09;;;19.40;46.11
11648;BME280;5880;52.342;9.662;2023-06-01T09:13:51;101498.34;;;19.38;46.28
11648;BME280;5880;52.342;9.662;2023-06-01T09:16:17;101511.97;;;19.45;46.27
11648;BME280;5880;52.342;9.662;2023-06-01T09:18:55;101500.06;;;19.49;46.00
11648;BME280;5880;52.342;9.662;2023-06-01T09:21:21;101503.66;;;19.50;46.23
11648;BME280;5880;52.342;9.662;2023-06-01T09:23:47;101492.06;;;19.53;46.37
11648;BME280;5880;52.342;9.662;2023-06-01T09:26:14;101489.81;;;19.55;46.38
11648;BME280;5880;52.342;9.662;2023-06-01T09:31:49;101493.22;;;19.62;46.06
11648;BME280;5880;52.342;9.662;2023-06-01T09:34:18;101477.09;;;19.64;45.97
11648;BME280;5880;52.342;9.662;2023-06-01T09:36:55;101488.25;;;19.69;46.32
11648;BME280;5880;52.342;9.662;2023-06-01T09:39:24;101484.09;;;19.72;46.18
11648;BME280;5880;52.342;9.662;2023-06-01T09:41:56;101478.00;;;19.75;46.39
11648;BME280;5880;52.342;9.662;2023-06-01T09:47:02;101476.06;;;19.80;46.22
11648;BME280;5880;52.342;9.662;2023-06-01T09:49:30;101475.81;;;19.82;46.28
11648;BME280;5880;52.342;9.662;2023-06-01T09:54:47;101474.41;;;19.85;46.19
11648;BME280;5880;52.342;9.662;2023-06-01T09:57:22;101475.81;;;19.87;46.03
11648;BME280;5880;52.342;9.662;2023-06-01T09:59:48;101470.00;;;19.89;46.22
11648;BME280;5880;52.342;9.662;2023-06-01T10:02:21;101464.44;;;19.89;46.08
11648;BME280;5880;52.342;9.662;2023-06-01T10:04:56;101465.31;;;19.99;46.28
11648;BME280;5880;52.342;9.662;2023-06-01T10:07:28;101458.91;;;20.04;46.35
11648;BME280;5880;52.342;9.662;2023-06-01T10:09:56;101464.50;;;20.09;46.21
11648;BME280;5880;52.342;9.662;2023-06-01T10:12:27;101460.03;;;20.13;46.20
11648;BME280;5880;52.342;9.662;2023-06-01T10:14:55;101455.59;;;20.12;46.20
11648;BME280;5880;52.342;9.662;2023-06-01T10:17:22;101464.22;;;20.16;46.13
11648;BME280;5880;52.342;9.662;2023-06-01T10:19:48;101463.34;;;20.20;46.15
11648;BME280;5880;52.342;9.662;2023-06-01T10:22:14;101472.53;;;20.21;45.79
11648;BME280;5880;52.342;9.662;2023-06-01T10:24:41;101457.28;;;20.18;45.90
11648;BME280;5880;52.342;9.662;2023-06-01T10:27:27;101466.44;;;20.24;46.03
11648;BME280;5880;52.342;9.662;2023-06-01T10:29:55;101461.44;;;20.21;46.12
11648;BME280;5880;52.342;9.662;2023-06-01T10:35:07;101459.22;;;20.28;46.31
11648;BME280;5880;52.342;9.662;2023-06-01T10:37:33;101452.00;;;20.32;46.24
11648;BME280;5880;52.342;9.662;2023-06-01T10:42:43;101455.03;;;20.41;46.21
11648;BME280;5880;52.342;9.662;2023-06-01T10:45:39;101447.81;;;20.45;45.83
11648;BME280;5880;52.342;9.662;2023-06-01T10:48:08;101453.38;;;20.45;46.03
11648;BME280;5880;52.342;9.662;2023-06-01T10:50:37;101453.66;;;20.49;46.25
11648;BME280;5880;52.342;9.662;2023-06-01T10:53:36;101447.25;;;20.48;46.01
11648;BME280;5880;52.342;9.662;2023-06-01T11:01:40;101454.50;;;20.44;45.77
11648;BME280;5880;52.342;9.662;2023-06-01T11:04:06;101453.94;;;20.42;45.86
11648;BME280;5880;52.342;9.662;2023-06-01T11:06:35;101453.66;;;20.43;45.73
11648;BME280;5880;52.342;9.662;2023-06-01T11:09:07;101440.06;;;20.42;46.01
11648;BME280;5880;52.342;9.662;2023-06-01T11:14:19;101446.19;;;20.44;46.34
11648;BME280;5880;52.342;9.662;2023-06-01T11:16:45;101440.06;;;20.42;46.18
11648;BME280;5880;52.342;9.662;2023-06-01T11:19:21;101439.50;;;20.50;46.33
11648;BME280;5880;52.342;9.662;2023-06-01T11:21:55;101440.59;;;20.54;46.34
11648;BME280;5880;52.342;9.662;2023-06-01T11:24:32;101440.63;;;20.59;46.48
11648;BME280;5880;52.342;9.662;2023-06-01T11:27:10;101433.41;;;20.63;46.19
11648;BME280;5880;52.342;9.662;2023-06-01T11:29:36;101437.81;;;20.64;45.93
11648;BME280;5880;52.342;9.662;2023-06-01T11:32:04;101435.91;;;20.65;46.26
11648;BME280;5880;52.342;9.662;2023-06-01T11:34:33;101441.16;;;20.66;45.96
11648;BME280;5880;52.342;9.662;2023-06-01T11:37:00;101434.78;;;20.66;46.12
11648;BME280;5880;52.342;9.662;2023-06-01T11:39:28;101433.13;;;20.65;46.25
11648;BME280;5880;52.342;9.662;2023-06-01T11:42:09;101430.06;;;20.61;45.88
11648;BME280;5880;52.342;9.662;2023-06-01T11:44:39;101430.34;;;20.60;45.98
11648;BME280;5880;52.342;9.662;2023-06-01T11:47:07;101428.13;;;20.62;46.20
11648;BME280;5880;52.342;9.662;2023-06-01T11:49:47;101435.06;;;20.64;45.75
11648;BME280;5880;52.342;9.662;2023-06-01T11:52:18;101430.88;;;20.62;45.90
11648;BME280;5880;52.342;9.662;2023-06-01T11:54:45;101429.81;;;20.63;46.13
11648;BME280;5880;52.342;9.662;2023-06-01T11:57:10;101420.59;;;20.62;46.12
11648;BME280;5880;52.342;9.662;2023-06-01T11:59:45;101417.84;;;20.62;46.13
11648;BME280;5880;52.342;9.662;2023-06-01T12:02:24;101425.88;;;20.69;46.09
11648;BME280;5880;52.342;9.662;2023-06-01T12:05:00;101428.66;;;20.69;45.95
11648;BME280;5880;52.342;9.662;2023-06-01T12:07:31;101425.31;;;20.67;46.00
11648;BME280;5880;52.342;9.662;2023-06-01T12:09:58;101419.25;;;20.65;46.14
11648;BME280;5880;52.342;9.662;2023-06-01T12:12:27;101419.50;;;20.69;46.15
11648;BME280;5880;52.342;9.662;2023-06-01T12:14:54;101422.53;;;20.67;46.36
11648;BME280;5880;52.342;9.662;2023-06-01T12:17:21;101422.28;;;20.69;45.92
11648;BME280;5880;52.342;9.662;2023-06-01T12:19:50;101420.31;;;20.69;46.00
11648;BME280;5880;52.342;9.662;2023-06-01T12:22:17;101421.16;;;20.70;45.99
11648;BME280;5880;52.342;9.662;2023-06-01T12:24:43;101423.09;;;20.69;45.96
11648;BME280;5880;52.342;9.662;2023-06-01T12:27:17;101423.66;;;20.71;46.26
11648;BME280;5880;52.342;9.662;2023-06-01T12:29:47;101419.22;;;20.70;46.22
11648;BME280;5880;52.342;9.662;2023-06-01T12:32:15;101416.16;;;20.72;46.31
11648;BME280;5880;52.342;9.662;2023-06-01T12:34:43;101421.41;;;20.78;46.38
11648;BME280;5880;52.342;9.662;2023-06-01T12:37:17;101406.97;;;20.81;46.39
11648;BME280;5880;52.342;9.662;2023-06-01T12:39:51;101418.06;;;20.86;46.31
11648;BME280;5880;52.342;9.662;2023-06-01T12:42:17;101410.28;;;20.83;45.97
11648;BME280;5880;52.342;9.662;2023-06-01T12:44:43;101404.19;;;20.86;46.15
11648;BME280;5880;52.342;9.662;2023-06-01T12:47:11;101418.63;;;20.89;46.20
11648;BME280;5880;52.342;9.662;2023-06-01T12:49:37;101412.50;;;20.86;45.96
11648;BME280;5880;52.342;9.662;2023-06-01T12:52:04;101418.31;;;20.90;45.92
11648;BME280;5880;52.342;9.662;2023-06-01T12:54:30;101416.38;;;20.91;45.86
11648;BME280;5880;52.342;9.662;2023-06-01T12:56:56;101411.13;;;20.89;45.82
11648;BME280;5880;52.342;9.662;2023-06-01T12:59:21;101423.31;;;20.88;45.67
11648;BME280;5880;52.342;9.662;2023-06-01T13:01:47;101415.31;;;20.81;46.16
11648;BME280;5880;52.342;9.662;2023-06-01T13:04:14;101398.91;;;20.80;46.02
11648;BME280;5880;52.342;9.662;2023-06-01T13:06:40;101410.00;;;20.85;45.90
11648;BME280;5880;52.342;9.662;2023-06-01T13:09:05;101412.50;;;20.86;45.88
11648;BME280;5880;52.342;9.662;2023-06-01T13:11:32;101411.38;;;20.87;45.84
11648;BME280;5880;52.342;9.662;2023-06-01T13:13:57;101415.84;;;20.89;45.86
11648;BME280;5880;52.342;9.662;2023-06-01T13:16:23;101410.56;;;20.87;46.10
11648;BME280;5880;52.342;9.662;2023-06-01T13:18:49;101407.75;;;20.92;45.97
11648;BME280;5880;52.342;9.662;2023-06-01T13:21:17;101409.72;;;20.92;46.00
11648;BME280;5880;52.342;9.662;2023-06-01T13:23:43;101411.91;;;20.95;45.86
11648;BME280;5880;52.342;9.662;2023-06-01T13:26:09;101404.97;;;20.97;46.21
11648;BME280;5880;52.342;9.662;2023-06-01T13:28:35;101397.72;;;21.01;46.08
11648;BME280;5880;52.342;9.662;2023-06-01T13:31:02;101399.09;;;21.04;46.11
11648;BME280;5880;52.342;9.662;2023-06-01T13:33:27;101395.47;;;21.08;46.08
11648;BME280;5880;52.342;9.662;2023-06-01T13:35:53;101405.47;;;21.15;46.38